Time;durP1;ratioP1;P1;durP2;ratioP2;P2;SDS_P1;SDS_P2;PMS_P1;PMS_P2;Temp;Humidity;BMP_temperature;BMP_pressure;BME280_temperature;BME280_humidity;BME280_pressure;Samples;Min_cycle;Max_cycle;Signal;HPM_P1;HPM_P2
2022/04/04 00:01:16;;;;;;;3.97;2.90;;;;;;;;;;4954703;28;92445;-63
2022/04/04 00:03:42;;;;;;;3.60;3.20;;;;;;;;;;4949703;28;94158;-63
2022/04/04 00:06:08;;;;;;;7.50;3.50;;;;;;;;;;4955427;28;94474;-63
2022/04/04 00:08:35;;;;;;;4.07;3.17;;;;;;;;;;4955426;28;92558;-63
2022/04/04 00:11:01;;;;;;;8.57;3.13;;;;;;;;;;4955502;28;93185;-63
2022/04/04 00:13:28;;;;;;;5.90;3.42;;;;;;;;;;4955273;28;93470;-63
2022/04/04 00:15:55;;;;;;;8.10;3.78;;;;;;;;;;4957524;28;92437;-63
2022/04/04 00:18:21;;;;;;;4.78;3.88;;;;;;;;;;4952804;28;95994;-63
2022/04/04 00:20:49;;;;;;;8.70;4.20;;;;;;;;;;4954741;28;92420;-63
2022/04/04 00:23:16;;;;;;;6.00;4.30;;;;;;;;;;4954824;28;93363;-63
2022/04/04 00:25:44;;;;;;;7.15;4.00;;;;;;;;;;4955097;28;92642;-63
2022/04/04 00:28:11;;;;;;;13.23;5.22;;;;;;;;;;4954922;28;92446;-64
2022/04/04 00:30:38;;;;;;;10.23;5.15;;;;;;;;;;4954281;28;93209;-63
2022/04/04 00:33:04;;;;;;;9.75;5.22;;;;;;;;;;4954903;28;93462;-63
2022/04/04 00:35:31;;;;;;;5.57;4.50;;;;;;;;;;4958355;28;91882;-63
2022/04/04 00:37:58;;;;;;;8.68;4.82;;;;;;;;;;4954935;28;93256;-63
2022/04/04 00:40:25;;;;;;;10.52;4.88;;;;;;;;;;4954781;28;92558;-63
2022/04/04 00:42:52;;;;;;;6.63;5.10;;;;;;;;;;4953666;28;94879;-63
2022/04/04 00:45:18;;;;;;;13.10;5.05;;;;;;;;;;4954916;28;93500;-62
2022/04/04 00:47:45;;;;;;;7.72;5.50;;;;;;;;;;4955071;28;92806;-63
2022/04/04 00:50:11;;;;;;;9.55;5.10;;;;;;;;;;4955149;28;93986;-64
2022/04/04 00:52:38;;;;;;;9.77;5.30;;;;;;;;;;4953981;28;93506;-66
2022/04/04 00:55:07;;;;;;;8.73;5.22;;;;;;;;;;4954667;28;92519;-63
2022/04/04 00:57:34;;;;;;;11.80;5.53;;;;;;;;;;4957202;28;94033;-64
2022/04/04 01:00:01;;;;;;;8.80;5.03;;;;;;;;;;4952763;28;91716;-62
2022/04/04 01:02:27;;;;;;;15.00;5.88;;;;;;;;;;4952167;28;92552;-64
2022/04/04 01:04:54;;;;;;;8.77;5.40;;;;;;;;;;4954811;28;94278;-63
2022/04/04 01:07:20;;;;;;;7.05;5.00;;;;;;;;;;4951299;28;95338;-63
2022/04/04 01:09:47;;;;;;;8.15;5.30;;;;;;;;;;4954423;28;95615;-63
2022/04/04 01:12:14;;;;;;;8.98;5.65;;;;;;;;;;4953569;28;93476;-63
2022/04/04 01:14:46;;;;;;;9.85;5.43;;;;;;;;;;4954494;28;92400;-63
2022/04/04 01:17:12;;;;;;;9.25;5.93;;;;;;;;;;4954867;28;92950;-63
2022/04/04 01:19:38;;;;;;;7.70;5.70;;;;;;;;;;4957622;28;93685;-63
2022/04/04 01:22:07;;;;;;;7.55;5.68;;;;;;;;;;4953881;28;93099;-62
2022/04/04 01:24:33;;;;;;;10.20;5.88;;;;;;;;;;4954792;28;93117;-63
2022/04/04 01:27:00;;;;;;;8.25;6.10;;;;;;;;;;4954125;28;92616;-63
2022/04/04 01:29:26;;;;;;;8.77;6.05;;;;;;;;;;4952620;28;92799;-63
2022/04/04 01:31:53;;;;;;;10.15;6.28;;;;;;;;;;4952770;28;95471;-63
2022/04/04 01:34:19;;;;;;;9.05;6.20;;;;;;;;;;4954414;28;92516;-62
2022/04/04 01:36:46;;;;;;;8.57;6.22;;;;;;;;;;4953868;28;94043;-63
2022/04/04 01:39:12;;;;;;;10.30;5.78;;;;;;;;;;4953913;28;92834;-63
2022/04/04 01:41:39;;;;;;;10.88;5.78;;;;;;;;;;4957180;28;92791;-63
2022/04/04 01:44:05;;;;;;;11.98;6.60;;;;;;;;;;4953217;28;94722;-63
2022/04/04 01:46:31;;;;;;;10.80;6.85;;;;;;;;;;4953440;28;92551;-63
2022/04/04 01:48:59;;;;;;;11.73;7.20;;;;;;;;;;4955099;28;91980;-63
2022/04/04 01:51:26;;;;;;;6.95;5.95;;;;;;;;;;4953783;28;93417;-63
2022/04/04 01:53:52;;;;;;;13.70;7.07;;;;;;;;;;4953737;28;92526;-63
2022/04/04 01:56:19;;;;;;;9.15;6.10;;;;;;;;;;4952422;28;94887;-63
2022/04/04 01:58:45;;;;;;;14.52;6.80;;;;;;;;;;4953807;28;93479;-63
2022/04/04 02:01:16;;;;;;;11.40;6.70;;;;;;;;;;4953002;28;93588;-63
2022/04/04 02:03:43;;;;;;;8.32;6.50;;;;;;;;;;4955732;28;93161;-62
2022/04/04 02:06:10;;;;;;;10.63;6.60;;;;;;;;;;4964509;28;92980;-63
2022/04/04 02:08:36;;;;;;;10.43;6.28;;;;;;;;;;4953302;28;93031;-62
2022/04/04 02:11:03;;;;;;;8.90;6.30;;;;;;;;;;4954098;28;94229;-63
2022/04/04 02:13:29;;;;;;;8.27;6.18;;;;;;;;;;4954469;28;92076;-63
2022/04/04 02:15:57;;;;;;;10.55;6.50;;;;;;;;;;4953978;28;94235;-63
2022/04/04 02:18:24;;;;;;;10.90;7.10;;;;;;;;;;4954899;28;93522;-63
2022/04/04 02:20:50;;;;;;;10.77;6.38;;;;;;;;;;4955264;28;94806;-63
2022/04/04 02:23:18;;;;;;;14.57;7.03;;;;;;;;;;4959890;28;95719;-65
2022/04/04 02:25:45;;;;;;;11.07;6.30;;;;;;;;;;4957075;28;92495;-63
2022/04/04 02:28:12;;;;;;;16.00;7.07;;;;;;;;;;4963974;28;92964;-63
2022/04/04 02:30:38;;;;;;;14.18;6.53;;;;;;;;;;4947211;28;93305;-62
2022/04/04 02:33:04;;;;;;;11.00;6.55;;;;;;;;;;4957086;28;92594;-63
2022/04/04 02:35:31;;;;;;;9.85;6.65;;;;;;;;;;4956392;28;93131;-63
2022/04/04 02:37:57;;;;;;;11.13;6.40;;;;;;;;;;4957516;28;92505;-63
2022/04/04 02:40:23;;;;;;;14.05;6.57;;;;;;;;;;4956890;28;92561;-63
2022/04/04 02:42:50;;;;;;;9.30;6.53;;;;;;;;;;4957311;28;92935;-63
2022/04/04 02:45:16;;;;;;;13.98;6.93;;;;;;;;;;4957913;28;95848;-64
2022/04/04 02:47:43;;;;;;;11.32;6.80;;;;;;;;;;4956579;28;96000;-62
2022/04/04 02:50:10;;;;;;;8.18;6.80;;;;;;;;;;4956340;28;94215;-63
2022/04/04 02:52:36;;;;;;;15.80;7.03;;;;;;;;;;4956337;28;92584;-63
2022/04/04 02:56:28;;;;;;;11.98;7.10;;;;;;;;;;4956485;28;93187;-63
2022/04/04 02:57:49;;;;;;;9.68;6.75;;;;;;;;;;4956837;28;94669;-63
2022/04/04 03:00:19;;;;;;;12.55;7.53;;;;;;;;;;4950316;28;92578;-62
2022/04/04 03:02:46;;;;;;;13.68;6.78;;;;;;;;;;4957115;28;94136;-63
2022/04/04 03:05:12;;;;;;;16.60;7.70;;;;;;;;;;4956203;28;93425;-62
2022/04/04 03:07:39;;;;;;;9.38;6.20;;;;;;;;;;4959484;28;92474;-68
2022/04/04 03:10:06;;;;;;;12.15;6.22;;;;;;;;;;4954656;28;95630;-63
2022/04/04 03:12:32;;;;;;;13.57;7.40;;;;;;;;;;4955974;28;93767;-63
2022/04/04 03:14:58;;;;;;;7.13;5.53;;;;;;;;;;4956401;28;93044;-64
2022/04/04 03:17:25;;;;;;;7.75;5.90;;;;;;;;;;4956499;28;92472;-62
2022/04/04 03:19:52;;;;;;;8.30;5.70;;;;;;;;;;4956365;28;92433;-63
2022/04/04 03:22:18;;;;;;;10.55;6.10;;;;;;;;;;4956442;28;92886;-63
2022/04/04 03:24:44;;;;;;;9.10;5.72;;;;;;;;;;4955813;28;94541;-63
2022/04/04 03:27:14;;;;;;;8.05;4.95;;;;;;;;;;4956977;28;93643;-62
2022/04/04 03:29:40;;;;;;;11.48;5.60;;;;;;;;;;4953842;28;92526;-63
2022/04/04 03:32:07;;;;;;;11.25;5.50;;;;;;;;;;4953003;28;92459;-63
2022/04/04 03:34:33;;;;;;;9.18;5.57;;;;;;;;;;4954133;28;94861;-63
2022/04/04 03:37:01;;;;;;;10.82;5.47;;;;;;;;;;4954820;28;93270;-62
2022/04/04 03:39:27;;;;;;;9.00;5.72;;;;;;;;;;4955850;28;92480;-63
2022/04/04 03:41:54;;;;;;;6.95;5.60;;;;;;;;;;4955652;28;93135;-63
2022/04/04 03:44:20;;;;;;;11.60;5.38;;;;;;;;;;4955169;28;93286;-63
2022/04/04 03:46:46;;;;;;;7.68;5.25;;;;;;;;;;4970284;28;92571;-66
2022/04/04 03:49:13;;;;;;;10.05;5.95;;;;;;;;;;4955838;28;92378;-63
2022/04/04 03:51:39;;;;;;;11.40;5.25;;;;;;;;;;4958690;28;93855;-63
2022/04/04 03:54:07;;;;;;;8.90;5.60;;;;;;;;;;4955367;28;92534;-63
2022/04/04 03:56:34;;;;;;;10.10;5.80;;;;;;;;;;4938828;28;93760;-63
2022/04/04 03:59:04;;;;;;;8.95;5.63;;;;;;;;;;4954641;28;95022;-63
2022/04/04 04:01:30;;;;;;;11.95;5.43;;;;;;;;;;4954940;28;96601;-63
2022/04/04 04:03:56;;;;;;;8.65;5.88;;;;;;;;;;4955623;28;93452;-63
2022/04/04 04:06:23;;;;;;;11.02;5.55;;;;;;;;;;4958873;28;92531;-63
2022/04/04 04:08:49;;;;;;;14.07;6.32;;;;;;;;;;4955633;28;94196;-63
2022/04/04 04:11:16;;;;;;;8.73;5.57;;;;;;;;;;4954822;28;93818;-63
2022/04/04 04:13:46;;;;;;;8.90;5.60;;;;;;;;;;4959010;28;92752;-63
2022/04/04 04:16:13;;;;;;;8.77;5.57;;;;;;;;;;4956145;28;93691;-63
2022/04/04 04:18:40;;;;;;;9.77;5.57;;;;;;;;;;4955322;28;92975;-62
2022/04/04 04:21:09;;;;;;;6.30;5.22;;;;;;;;;;4955050;28;93234;-63
2022/04/04 04:23:40;;;;;;;7.78;5.82;;;;;;;;;;4947146;28;95896;-63
2022/04/04 04:26:08;;;;;;;11.20;5.78;;;;;;;;;;4954189;28;92361;-63
2022/04/04 04:28:35;;;;;;;12.18;6.03;;;;;;;;;;4955305;28;93308;-63
2022/04/04 04:31:02;;;;;;;8.68;5.45;;;;;;;;;;4954936;28;93635;-65
2022/04/04 04:33:29;;;;;;;11.60;5.88;;;;;;;;;;4958387;28;92522;-62
2022/04/04 04:35:57;;;;;;;12.82;5.47;;;;;;;;;;4953857;28;94075;-63
2022/04/04 04:38:23;;;;;;;16.40;6.45;;;;;;;;;;4954915;28;92608;-63
2022/04/04 04:40:49;;;;;;;9.85;6.72;;;;;;;;;;4955108;28;92966;-63
2022/04/04 04:43:15;;;;;;;14.40;7.18;;;;;;;;;;4939221;28;93241;-63
2022/04/04 04:45:42;;;;;;;12.32;6.88;;;;;;;;;;4955052;28;92486;-62
2022/04/04 04:48:09;;;;;;;15.57;6.90;;;;;;;;;;4953815;28;94868;-62
2022/04/04 04:50:35;;;;;;;8.95;6.75;;;;;;;;;;4954661;28;93566;-63
2022/04/04 04:53:02;;;;;;;14.90;7.20;;;;;;;;;;4954879;28;92494;-63
2022/04/04 04:55:28;;;;;;;10.05;7.03;;;;;;;;;;4957506;28;92607;-63
2022/04/04 04:57:55;;;;;;;12.18;6.93;;;;;;;;;;4954775;28;92422;-63
2022/04/04 05:00:22;;;;;;;8.63;6.38;;;;;;;;;;4954358;28;93927;-62
2022/04/04 05:05:37;;;;;;;11.50;6.97;;;;;;;;;;4953844;28;91753;-63
2022/04/04 05:08:04;;;;;;;9.50;7.13;;;;;;;;;;4954448;28;93326;-63
2022/04/04 05:10:30;;;;;;;15.32;7.13;;;;;;;;;;4954144;28;93625;-64
2022/04/04 05:12:57;;;;;;;12.85;6.90;;;;;;;;;;4952849;28;94945;-62
2022/04/04 05:15:23;;;;;;;13.02;7.18;;;;;;;;;;4955137;28;95551;-63
2022/04/04 05:17:50;;;;;;;16.45;7.22;;;;;;;;;;4957330;28;93642;-64
2022/04/04 05:20:16;;;;;;;12.82;7.25;;;;;;;;;;4954145;28;94262;-63
2022/04/04 05:22:42;;;;;;;16.17;6.93;;;;;;;;;;4954567;28;94636;-63
2022/04/04 05:25:09;;;;;;;9.85;6.97;;;;;;;;;;4954413;28;92637;-63
2022/04/04 05:27:36;;;;;;;12.43;6.75;;;;;;;;;;4954171;28;92908;-63
2022/04/04 05:30:02;;;;;;;10.98;7.38;;;;;;;;;;4954362;28;92271;-65
2022/04/04 05:32:29;;;;;;;14.00;6.88;;;;;;;;;;4951946;28;92503;-63
2022/04/04 05:34:55;;;;;;;18.02;7.30;;;;;;;;;;4953441;28;93280;-62
2022/04/04 05:37:21;;;;;;;11.70;6.88;;;;;;;;;;4952063;28;96645;-63
2022/04/04 05:39:47;;;;;;;19.70;6.97;;;;;;;;;;4957074;28;92496;-64
2022/04/04 05:42:16;;;;;;;12.25;6.70;;;;;;;;;;4953853;28;93201;-63
2022/04/04 05:44:42;;;;;;;15.40;6.60;;;;;;;;;;4954003;28;92450;-62
2022/04/04 05:47:13;;;;;;;10.70;7.47;;;;;;;;;;4954563;28;93136;-63
2022/04/04 05:49:40;;;;;;;8.50;6.65;;;;;;;;;;4954015;28;93439;-62
2022/04/04 05:52:07;;;;;;;14.77;7.32;;;;;;;;;;4954077;28;92570;-63
2022/04/04 05:54:33;;;;;;;8.80;6.90;;;;;;;;;;4958069;28;93139;-64
2022/04/04 05:57:00;;;;;;;17.25;7.30;;;;;;;;;;4957000;28;93477;-63
2022/04/04 05:59:26;;;;;;;12.40;6.88;;;;;;;;;;4957484;28;92464;-63
2022/04/04 06:01:52;;;;;;;14.80;7.10;;;;;;;;;;4958539;28;95276;-63
2022/04/04 06:04:19;;;;;;;10.90;6.88;;;;;;;;;;4957961;28;92758;-63
2022/04/04 06:06:45;;;;;;;18.65;7.35;;;;;;;;;;4954920;28;92502;-63
2022/04/04 06:09:11;;;;;;;12.77;7.22;;;;;;;;;;4955666;28;93314;-63
2022/04/04 06:11:38;;;;;;;9.90;6.90;;;;;;;;;;4957776;28;92379;-62
2022/04/04 06:14:04;;;;;;;17.17;7.68;;;;;;;;;;4958499;28;95263;-62
2022/04/04 06:16:30;;;;;;;11.23;7.25;;;;;;;;;;4956886;28;94259;-63
2022/04/04 06:18:56;;;;;;;12.50;7.10;;;;;;;;;;4957254;28;91685;-62
2022/04/04 06:21:23;;;;;;;15.65;7.15;;;;;;;;;;4957721;28;92611;-63
2022/04/04 06:23:49;;;;;;;13.90;7.13;;;;;;;;;;4960144;28;92521;-61
2022/04/04 06:26:16;;;;;;;12.52;7.55;;;;;;;;;;4955784;28;94905;-62
2022/04/04 06:28:42;;;;;;;11.27;7.40;;;;;;;;;;4956880;28;94495;-66
2022/04/04 06:31:08;;;;;;;10.50;6.93;;;;;;;;;;4940946;28;92459;-62
2022/04/04 06:33:35;;;;;;;11.00;7.55;;;;;;;;;;4938011;28;93245;-64
2022/04/04 06:36:01;;;;;;;16.65;8.27;;;;;;;;;;4949132;28;93503;-61
2022/04/04 06:38:28;;;;;;;12.68;7.45;;;;;;;;;;4956777;28;92465;-61
2022/04/04 06:40:55;;;;;;;12.20;6.25;;;;;;;;;;4957773;28;93213;-61
2022/04/04 06:43:21;;;;;;;15.70;7.40;;;;;;;;;;4959871;28;93293;-62
2022/04/04 06:45:48;;;;;;;11.15;7.20;;;;;;;;;;4957504;28;93425;-62
2022/04/04 06:48:15;;;;;;;10.23;6.75;;;;;;;;;;4956516;28;94417;-62
2022/04/04 06:50:42;;;;;;;10.98;7.38;;;;;;;;;;4955365;28;94923;-61
2022/04/04 06:53:08;;;;;;;14.10;7.53;;;;;;;;;;4957563;28;96999;-62
2022/04/04 06:55:44;;;;;;;18.25;7.55;;;;;;;;;;4954821;28;93455;-63
2022/04/04 06:58:11;;;;;;;9.52;7.20;;;;;;;;;;4950604;28;93689;-62
2022/04/04 07:00:37;;;;;;;13.07;7.13;;;;;;;;;;4953827;28;94595;-62
2022/04/04 07:03:05;;;;;;;10.60;6.70;;;;;;;;;;4955644;28;92579;-62
2022/04/04 07:05:32;;;;;;;12.77;7.15;;;;;;;;;;4959038;28;92535;-62
2022/04/04 07:07:58;;;;;;;12.27;6.85;;;;;;;;;;4955744;28;93255;-61
2022/04/04 07:10:24;;;;;;;11.50;6.65;;;;;;;;;;4955555;28;92451;-63
2022/04/04 07:12:51;;;;;;;12.88;6.65;;;;;;;;;;4953618;28;92950;-62
2022/04/04 07:15:17;;;;;;;15.05;5.72;;;;;;;;;;4955075;28;95980;-61
2022/04/04 07:17:44;;;;;;;11.18;6.38;;;;;;;;;;4957638;28;93666;-62
2022/04/04 07:20:11;;;;;;;16.77;6.60;;;;;;;;;;4961488;28;93092;-62
2022/04/04 07:22:41;;;;;;;12.35;6.35;;;;;;;;;;4975457;28;93260;-62
2022/04/04 07:25:08;;;;;;;12.25;6.45;;;;;;;;;;4959532;28;93053;-62
2022/04/04 07:27:41;;;;;;;13.93;6.00;;;;;;;;;;4967709;28;93177;-61
2022/04/04 07:30:09;;;;;;;13.60;6.28;;;;;;;;;;4973367;28;92595;-63
2022/04/04 07:32:36;;;;;;;10.20;5.63;;;;;;;;;;4972299;28;94560;-62
2022/04/04 07:35:03;;;;;;;13.48;6.82;;;;;;;;;;4973476;28;93399;-63
2022/04/04 07:37:30;;;;;;;11.93;6.20;;;;;;;;;;4958583;28;92426;-62
2022/04/04 07:39:56;;;;;;;22.02;6.47;;;;;;;;;;4954695;28;94848;-62
2022/04/04 07:42:23;;;;;;;16.33;5.63;;;;;;;;;;4956494;28;93608;-61
2022/04/04 07:44:50;;;;;;;8.27;6.10;;;;;;;;;;4955235;28;92590;-62
2022/04/04 07:47:16;;;;;;;11.55;6.65;;;;;;;;;;4973270;28;92973;-61
2022/04/04 07:49:42;;;;;;;14.88;7.25;;;;;;;;;;4960090;28;93481;-61
2022/04/04 07:52:08;;;;;;;14.38;7.57;;;;;;;;;;4954545;28;93214;-61
2022/04/04 07:54:35;;;;;;;14.77;8.13;;;;;;;;;;4954455;28;93648;-63
2022/04/04 07:57:01;;;;;;;15.35;8.50;;;;;;;;;;4956414;28;91739;-61
2022/04/04 07:59:28;;;;;;;17.98;7.78;;;;;;;;;;4955386;28;93493;-62
2022/04/04 08:01:54;;;;;;;11.50;7.10;;;;;;;;;;4954429;28;93441;-61
2022/04/04 08:04:21;;;;;;;16.80;7.05;;;;;;;;;;4947638;28;96773;-62
2022/04/04 08:06:48;;;;;;;13.25;7.10;;;;;;;;;;4948630;28;95450;-62
2022/04/04 08:09:15;;;;;;;12.68;6.32;;;;;;;;;;4949506;28;93794;-62
2022/04/04 08:11:41;;;;;;;17.50;8.07;;;;;;;;;;4952445;28;92492;-62
2022/04/04 08:14:08;;;;;;;19.52;7.18;;;;;;;;;;4953077;28;94178;-61
2022/04/04 08:16:35;;;;;;;10.77;7.30;;;;;;;;;;4955452;28;92483;-62
2022/04/04 08:19:02;;;;;;;13.52;7.18;;;;;;;;;;4955185;28;93098;-62
2022/04/04 08:21:29;;;;;;;14.60;9.02;;;;;;;;;;4955218;28;91824;-62
2022/04/04 08:23:56;;;;;;;15.80;7.57;;;;;;;;;;4954831;28;92489;-63
2022/04/04 08:26:22;;;;;;;14.13;7.25;;;;;;;;;;4954340;28;93262;-63
2022/04/04 08:28:48;;;;;;;13.73;7.13;;;;;;;;;;4953357;28;95872;-63
2022/04/04 08:31:15;;;;;;;13.45;7.43;;;;;;;;;;4953397;28;92784;-63
2022/04/04 08:33:41;;;;;;;12.15;7.65;;;;;;;;;;4957317;28;93309;-63
2022/04/04 08:36:07;;;;;;;15.48;8.38;;;;;;;;;;4954709;28;93185;-64
2022/04/04 08:38:37;;;;;;;12.38;8.80;;;;;;;;;;4955033;28;92758;-63
2022/04/04 08:41:05;;;;;;;21.10;9.57;;;;;;;;;;4955414;28;93093;-62
2022/04/04 08:43:36;;;;;;;18.00;9.05;;;;;;;;;;4952132;28;97934;-63
2022/04/04 08:46:02;;;;;;;;;;;;;;;;;;4955680;28;94121;-61
2022/04/04 08:48:30;;;;;;;12.05;9.57;;;;;;;;;;4954659;28;123994;-63
2022/04/04 08:50:57;;;;;;;16.17;9.40;;;;;;;;;;4953949;28;92588;-63
2022/04/04 08:53:23;;;;;;;20.38;9.93;;;;;;;;;;4955699;28;94845;-63
2022/04/04 08:55:50;;;;;;;15.85;10.55;;;;;;;;;;4953842;28;92523;-63
2022/04/04 08:58:16;;;;;;;17.83;10.70;;;;;;;;;;4951809;28;93222;-64
2022/04/04 09:00:43;;;;;;;21.08;10.77;;;;;;;;;;4951692;28;94364;-64
2022/04/04 09:03:10;;;;;;;16.10;10.75;;;;;;;;;;4935559;28;92546;-63
2022/04/04 09:05:49;;;;;;;13.45;10.20;;;;;;;;;;4953217;28;93394;-64
2022/04/04 09:08:23;;;;;;;13.82;10.90;;;;;;;;;;4952756;28;94028;-64
2022/04/04 09:10:56;;;;;;;17.70;11.60;;;;;;;;;;4954617;28;91675;-64
2022/04/04 09:13:26;;;;;;;17.50;10.50;;;;;;;;;;4953804;28;93731;-64
2022/04/04 09:15:52;;;;;;;15.53;10.50;;;;;;;;;;4956827;28;93654;-64
2022/04/04 09:18:19;;;;;;;13.38;9.60;;;;;;;;;;4952367;28;95192;-64
2022/04/04 09:20:49;;;;;;;11.45;8.70;;;;;;;;;;4954461;28;94394;-64
2022/04/04 09:23:16;;;;;;;12.03;8.67;;;;;;;;;;4953946;28;92452;-64
2022/04/04 09:25:43;;;;;;;12.68;7.22;;;;;;;;;;4952386;28;93165;-65
2022/04/04 09:28:17;;;;;;;15.10;6.32;;;;;;;;;;4954456;28;93494;-64
2022/04/04 09:30:44;;;;;;;9.50;6.50;;;;;;;;;;4958120;28;92586;-64
2022/04/04 09:33:14;;;;;;;9.77;7.70;;;;;;;;;;4957996;28;94022;-64
2022/04/04 09:35:46;;;;;;;10.50;7.37;;;;;;;;;;4957591;28;92770;-64
2022/04/04 09:38:13;;;;;;;15.23;7.93;;;;;;;;;;4960760;28;92480;-64
2022/04/04 09:40:40;;;;;;;13.07;8.13;;;;;;;;;;4956697;28;94714;-64
2022/04/04 09:43:06;;;;;;;11.68;7.18;;;;;;;;;;4955787;28;95072;-65
2022/04/04 09:45:32;;;;;;;10.85;7.15;;;;;;;;;;4956973;28;95587;-65
2022/04/04 09:48:00;;;;;;;11.98;7.40;;;;;;;;;;4957957;28;94558;-64
2022/04/04 09:50:32;;;;;;;10.95;7.35;;;;;;;;;;4957168;28;92850;-65
2022/04/04 09:53:07;;;;;;;10.52;6.50;;;;;;;;;;4956801;28;93217;-64
2022/04/04 09:55:35;;;;;;;9.80;6.38;;;;;;;;;;4957079;28;94483;-64
2022/04/04 09:58:02;;;;;;;15.55;6.38;;;;;;;;;;4957352;28;92518;-64
2022/04/04 10:00:29;;;;;;;7.75;6.28;;;;;;;;;;4960446;28;93092;-64
2022/04/04 10:02:56;;;;;;;12.25;6.57;;;;;;;;;;4948750;28;92643;-64
2022/04/04 10:05:26;;;;;;;11.65;6.68;;;;;;;;;;4955908;28;93279;-64
2022/04/04 10:07:55;;;;;;;11.02;6.57;;;;;;;;;;4963205;28;95918;-64
2022/04/04 10:10:26;;;;;;;9.35;6.32;;;;;;;;;;4958065;28;92572;-64
2022/04/04 10:12:53;;;;;;;10.02;6.68;;;;;;;;;;4952802;28;93074;-65
2022/04/04 10:15:21;;;;;;;17.52;7.32;;;;;;;;;;4957187;28;93503;-64
2022/04/04 10:17:48;;;;;;;7.55;5.88;;;;;;;;;;4957463;28;92525;-64
2022/04/04 10:20:15;;;;;;;9.90;6.05;;;;;;;;;;4956810;28;92626;-63
2022/04/04 10:22:42;;;;;;;14.88;6.30;;;;;;;;;;4959221;28;92511;-63
2022/04/04 10:25:09;;;;;;;7.63;5.55;;;;;;;;;;4980851;28;93194;-63
2022/04/04 10:27:35;;;;;;;6.82;5.50;;;;;;;;;;4956174;28;93462;-63
2022/04/04 10:30:05;;;;;;;7.85;5.63;;;;;;;;;;4955396;28;92884;-64
2022/04/04 10:32:32;;;;;;;6.47;5.17;;;;;;;;;;4954971;28;94861;-64
2022/04/04 10:35:09;;;;;;;11.52;5.13;;;;;;;;;;4956251;28;94618;-63
2022/04/04 10:37:44;;;;;;;6.32;5.30;;;;;;;;;;4957224;28;92522;-64
2022/04/04 10:40:37;;;;;;;5.85;4.97;;;;;;;;;;4956161;28;93232;-63
2022/04/04 10:43:06;;;;;;;10.02;5.20;;;;;;;;;;4953845;28;93511;-63
2022/04/04 10:45:51;;;;;;;8.15;5.00;;;;;;;;;;4958653;28;92483;-65
2022/04/04 10:48:18;;;;;;;7.32;5.28;;;;;;;;;;4956729;28;93458;-64
2022/04/04 10:50:45;;;;;;;6.47;4.90;;;;;;;;;;4957382;28;91793;-64
2022/04/04 10:53:11;;;;;;;10.85;5.40;;;;;;;;;;4955774;28;92765;-63
2022/04/04 10:55:37;;;;;;;6.28;4.65;;;;;;;;;;4956688;28;94464;-64
2022/04/04 10:58:07;;;;;;;10.32;6.32;;;;;;;;;;4954800;28;95238;-63
2022/04/04 11:00:51;;;;;;;12.07;4.97;;;;;;;;;;4955273;28;95645;-61
2022/04/04 11:03:25;;;;;;;6.25;5.22;;;;;;;;;;4949428;28;93271;-63
2022/04/04 11:09:00;;;;;;;12.95;5.40;;;;;;;;;;4956378;28;94179;-63
2022/04/04 11:11:42;;;;;;;9.75;5.15;;;;;;;;;;4946352;28;92628;-65
2022/04/04 11:14:08;;;;;;;11.50;5.40;;;;;;;;;;4955852;28;93183;-64
2022/04/04 11:16:53;;;;;;;11.80;5.80;;;;;;;;;;4954780;28;92726;-63
2022/04/04 11:19:19;;;;;;;7.32;5.00;;;;;;;;;;4955768;28;92393;-62
2022/04/04 11:21:46;;;;;;;8.65;4.95;;;;;;;;;;4955614;28;92459;-61
2022/04/04 11:24:14;;;;;;;6.72;4.82;;;;;;;;;;4954128;28;95836;-61
2022/04/04 11:26:41;;;;;;;7.10;4.40;;;;;;;;;;4954658;28;92509;-62
2022/04/04 11:29:19;;;;;;;6.60;4.78;;;;;;;;;;4957635;28;93347;-61
2022/04/04 11:31:46;;;;;;;6.90;4.45;;;;;;;;;;4955924;28;92482;-62
2022/04/04 11:34:14;;;;;;;5.38;4.20;;;;;;;;;;4956155;28;93052;-62
2022/04/04 11:36:41;;;;;;;4.95;4.10;;;;;;;;;;4953893;28;94105;-62
2022/04/04 11:39:09;;;;;;;4.43;4.03;;;;;;;;;;4954810;28;92555;-61
2022/04/04 11:45:11;;;;;;;4.05;3.60;;;;;;;;;;4934369;28;94116;-62
2022/04/04 11:47:41;;;;;;;5.70;3.80;;;;;;;;;;4947401;28;92611;-62
2022/04/04 11:50:30;;;;;;;6.25;4.10;;;;;;;;;;4952909;28;95055;-62
2022/04/04 11:53:04;;;;;;;5.63;3.80;;;;;;;;;;4958369;28;93501;-62
2022/04/04 11:55:31;;;;;;;5.35;4.50;;;;;;;;;;4955841;28;92794;-62
2022/04/04 11:58:20;;;;;;;6.50;4.28;;;;;;;;;;4953231;28;93493;-62
2022/04/04 12:03:43;;;;;;;4.75;3.50;;;;;;;;;;4949978;28;93269;-62
2022/04/04 12:06:09;;;;;;;3.63;3.03;;;;;;;;;;4954978;28;94458;-62
2022/04/04 12:11:30;;;;;;;8.00;3.50;;;;;;;;;;4945119;28;92464;-62
2022/04/04 12:13:58;;;;;;;3.28;2.72;;;;;;;;;;4952450;28;93518;-61
2022/04/04 12:16:24;;;;;;;4.47;3.30;;;;;;;;;;4956296;28;94937;-62
2022/04/04 12:18:54;;;;;;;3.50;3.00;;;;;;;;;;4954121;28;93402;-63
2022/04/04 12:21:21;;;;;;;7.00;2.90;;;;;;;;;;4954937;28;92977;-61
2022/04/04 12:26:34;;;;;;;5.22;3.35;;;;;;;;;;4954946;28;94601;-61
2022/04/04 12:29:03;;;;;;;3.00;2.80;;;;;;;;;;4954193;28;92377;-61
2022/04/04 12:31:29;;;;;;;6.68;3.47;;;;;;;;;;4954477;28;94205;-60
2022/04/04 12:34:00;;;;;;;3.88;3.05;;;;;;;;;;4955168;28;92549;-62
2022/04/04 12:36:29;;;;;;;3.55;3.25;;;;;;;;;;4954455;28;93004;-62
2022/04/04 12:38:58;;;;;;;3.85;3.55;;;;;;;;;;4953189;28;92446;-60
2022/04/04 12:41:25;;;;;;;3.85;2.67;;;;;;;;;;4953838;28;94812;-61
2022/04/04 12:43:58;;;;;;;3.22;2.60;;;;;;;;;;4954776;28;96351;-62
2022/04/04 12:46:27;;;;;;;3.13;2.85;;;;;;;;;;4954724;28;93221;-65
2022/04/04 12:49:12;;;;;;;3.42;2.63;;;;;;;;;;4947089;28;92455;-62
2022/04/04 12:51:38;;;;;;;3.25;2.95;;;;;;;;;;4954985;28;93253;-65
2022/04/04 12:54:05;;;;;;;4.65;2.72;;;;;;;;;;4954660;28;93136;-61
2022/04/04 12:56:46;;;;;;;4.55;3.35;;;;;;;;;;4954510;28;92514;-62
2022/04/04 12:59:13;;;;;;;3.17;2.97;;;;;;;;;;4957974;28;92884;-62
2022/04/04 13:01:39;;;;;;;2.92;2.47;;;;;;;;;;4955021;28;92468;-61
2022/04/04 13:04:25;;;;;;;4.78;2.85;;;;;;;;;;4954379;28;93143;-63
2022/04/04 13:06:52;;;;;;;4.90;2.67;;;;;;;;;;4950911;28;95783;-63
2022/04/04 13:09:23;;;;;;;2.88;2.65;;;;;;;;;;4953217;28;92559;-63
2022/04/04 13:11:50;;;;;;;2.33;2.13;;;;;;;;;;4954932;28;93193;-64
2022/04/04 13:14:21;;;;;;;2.13;2.03;;;;;;;;;;4954533;28;94102;-62
2022/04/04 13:16:51;;;;;;;5.47;2.72;;;;;;;;;;4954781;28;92562;-61
2022/04/04 13:19:17;;;;;;;2.20;2.00;;;;;;;;;;4954135;28;93316;-61
2022/04/04 13:21:50;;;;;;;4.95;2.30;;;;;;;;;;4957603;28;93262;-62
2022/04/04 13:24:16;;;;;;;2.33;1.75;;;;;;;;;;4955160;28;93126;-61
2022/04/04 13:26:45;;;;;;;3.63;2.70;;;;;;;;;;4954003;28;94606;-61
2022/04/04 13:29:12;;;;;;;1.85;1.75;;;;;;;;;;4954303;28;92452;-61
2022/04/04 13:31:39;;;;;;;3.47;2.20;;;;;;;;;;4950455;28;96755;-62
2022/04/04 13:34:06;;;;;;;1.92;1.60;;;;;;;;;;4953654;28;93465;-62
2022/04/04 13:36:32;;;;;;;2.25;2.05;;;;;;;;;;4952053;28;92472;-60
2022/04/04 13:38:59;;;;;;;4.10;1.40;;;;;;;;;;4954019;28;92758;-60
2022/04/04 13:41:26;;;;;;;1.35;1.33;;;;;;;;;;4953335;28;93547;-62
2022/04/04 13:43:53;;;;;;;4.35;2.17;;;;;;;;;;4957090;28;93114;-62
2022/04/04 13:46:21;;;;;;;1.77;1.48;;;;;;;;;;4953888;28;94068;-62
2022/04/04 13:48:47;;;;;;;1.02;1.02;;;;;;;;;;4953972;28;91788;-61
2022/04/04 13:51:19;;;;;;;1.63;1.48;;;;;;;;;;4954077;28;93606;-62
2022/04/04 13:53:46;;;;;;;1.33;1.23;;;;;;;;;;4949145;28;93266;-62
2022/04/04 13:56:13;;;;;;;2.65;1.88;;;;;;;;;;4949335;28;94873;-63
2022/04/04 13:58:41;;;;;;;1.63;1.52;;;;;;;;;;4953743;28;95305;-62
2022/04/04 14:01:07;;;;;;;1.77;1.67;;;;;;;;;;4953361;28;92497;-62
2022/04/04 14:03:34;;;;;;;1.13;1.02;;;;;;;;;;4954006;28;92432;-62
2022/04/04 14:06:00;;;;;;;2.15;1.50;;;;;;;;;;4954919;28;93048;-63
2022/04/04 14:08:27;;;;;;;4.25;1.38;;;;;;;;;;4953903;28;92807;-61
2022/04/04 14:10:56;;;;;;;2.72;1.17;;;;;;;;;;4953191;28;94126;-59
2022/04/04 14:13:23;;;;;;;1.57;1.47;;;;;;;;;;4953839;28;92521;-59
2022/04/04 14:15:50;;;;;;;1.50;1.20;;;;;;;;;;4957307;28;92427;-62
2022/04/04 14:18:16;;;;;;;0.88;0.88;;;;;;;;;;4957080;28;93277;-61
2022/04/04 14:20:43;;;;;;;1.10;1.10;;;;;;;;;;4954629;28;95903;-60
2022/04/04 14:23:09;;;;;;;0.90;0.90;;;;;;;;;;4948492;28;92540;-61
2022/04/04 14:25:37;;;;;;;1.40;1.30;;;;;;;;;;4956416;28;93266;-60
2022/04/04 14:28:04;;;;;;;1.55;1.40;;;;;;;;;;4959875;28;92509;-60
2022/04/04 14:30:30;;;;;;;1.58;1.20;;;;;;;;;;4956670;28;93084;-60
2022/04/04 14:33:01;;;;;;;1.40;1.20;;;;;;;;;;4956378;28;94538;-62
2022/04/04 14:35:27;;;;;;;1.52;1.38;;;;;;;;;;4956893;28;92512;-62
2022/04/04 14:37:53;;;;;;;1.67;1.30;;;;;;;;;;4956666;28;93981;-62
2022/04/04 14:40:20;;;;;;;1.73;1.55;;;;;;;;;;4955526;28;95810;-61
2022/04/04 14:42:46;;;;;;;1.40;1.30;;;;;;;;;;4954948;28;92569;-61
2022/04/04 14:45:12;;;;;;;1.52;1.50;;;;;;;;;;4955153;28;94818;-62
2022/04/04 14:47:39;;;;;;;1.70;1.60;;;;;;;;;;4956543;28;94277;-61
2022/04/04 14:50:07;;;;;;;2.00;1.80;;;;;;;;;;4959834;28;92550;-63
2022/04/04 14:52:35;;;;;;;2.58;2.38;;;;;;;;;;4956202;28;94411;-62
2022/04/04 14:55:02;;;;;;;3.50;2.38;;;;;;;;;;4956525;28;92504;-62
2022/04/04 14:57:29;;;;;;;3.03;2.58;;;;;;;;;;4956008;28;92926;-61